sensor_id;sensor_type;location;lat;lon;timestamp;pressure;altitude;pressure_sealevel;temperature;humidity
57102;BME280;42982;54.558;18.508;2023-06-01T00:00:55;100745.94;;;15.31;65.56
57102;BME280;42982;54.558;18.508;2023-06-01T00:01:59;100744.94;;;15.27;65.45
57102;BME280;42982;54.558;18.508;2023-06-01T00:03:00;100744.94;;;15.27;65.78
57102;BME280;42982;54.558;18.508;2023-06-01T00:04:02;100748.47;;;15.27;65.81
57102;BME280;42982;54.558;18.508;2023-06-01T00:05:05;100746.53;;;15.28;65.55
57102;BME280;42982;54.558;18.508;2023-06-01T00:06:06;100753.38;;;15.25;65.64
57102;BME280;42982;54.558;18.508;2023-06-01T00:07:09;100736.31;;;15.25;65.62
57102;BME280;42982;54.558;18.508;2023-06-01T00:08:11;100745.56;;;15.24;65.90
57102;BME280;42982;54.558;18.508;2023-06-01T00:09:12;100746.69;;;15.23;65.81
57102;BME280;42982;54.558;18.508;2023-06-01T00:10:14;100733.13;;;15.23;65.72
57102;BME280;42982;54.558;18.508;2023-06-01T00:11:17;100744.75;;;15.23;65.99
57102;BME280;42982;54.558;18.508;2023-06-01T00:12:19;100732.31;;;15.22;65.97
57102;BME280;42982;54.558;18.508;2023-06-01T00:13:21;100736.94;;;15.22;66.07
57102;BME280;42982;54.558;18.508;2023-06-01T00:14:22;100726.50;;;15.15;66.03
57102;BME280;42982;54.558;18.508;2023-06-01T00:15:24;100731.94;;;15.15;66.12
57102;BME280;42982;54.558;18.508;2023-06-01T00:16:26;100730.53;;;15.18;66.31
57102;BME280;42982;54.558;18.508;2023-06-01T00:17:27;100739.75;;;15.17;66.45
57102;BME280;42982;54.558;18.508;2023-06-01T00:18:29;100728.09;;;15.16;66.15
57102;BME280;42982;54.558;18.508;2023-06-01T00:19:31;100726.31;;;15.12;66.31
57102;BME280;42982;54.558;18.508;2023-06-01T00:20:37;100716.72;;;15.05;66.43
57102;BME280;42982;54.558;18.508;2023-06-01T00:21:39;100722.13;;;15.05;66.63
57102;BME280;42982;54.558;18.508;2023-06-01T00:22:42;100723.72;;;15.06;66.84
57102;BME280;42982;54.558;18.508;2023-06-01T00:23:45;100719.94;;;15.07;66.88
57102;BME280;42982;54.558;18.508;2023-06-01T00:24:46;100720.41;;;15.10;66.54
57102;BME280;42982;54.558;18.508;2023-06-01T00:25:49;100721.72;;;15.12;66.54
57102;BME280;42982;54.558;18.508;2023-06-01T00:26:51;100725.22;;;15.13;66.57
57102;BME280;42982;54.558;18.508;2023-06-01T00:27:52;100723.34;;;15.13;66.49
57102;BME280;42982;54.558;18.508;2023-06-01T00:28:54;100730.16;;;15.11;66.85
57102;BME280;42982;54.558;18.508;2023-06-01T00:29:57;100717.69;;;15.10;66.76
57102;BME280;42982;54.558;18.508;2023-06-01T00:30:59;100719.13;;;15.07;66.67
57102;BME280;42982;54.558;18.508;2023-06-01T00:32:00;100718.44;;;15.01;66.95
57102;BME280;42982;54.558;18.508;2023-06-01T00:33:03;100710.53;;;14.91;67.26
57102;BME280;42982;54.558;18.508;2023-06-01T00:34:05;100716.75;;;14.92;67.41
57102;BME280;42982;54.558;18.508;2023-06-01T00:35:09;100707.50;;;14.93;67.56
57102;BME280;42982;54.558;18.508;2023-06-01T00:36:10;100717.03;;;14.90;67.34
57102;BME280;42982;54.558;18.508;2023-06-01T00:37:11;100712.72;;;14.89;67.67
57102;BME280;42982;54.558;18.508;2023-06-01T00:38:13;100714.94;;;14.87;67.70
57102;BME280;42982;54.558;18.508;2023-06-01T00:39:15;100713.03;;;14.88;67.75
57102;BME280;42982;54.558;18.508;2023-06-01T00:40:16;100717.16;;;14.85;67.77
57102;BME280;42982;54.558;18.508;2023-06-01T00:41:19;100714.47;;;14.85;67.66
57102;BME280;42982;54.558;18.508;2023-06-01T00:42:21;100718.25;;;14.84;67.83
57102;BME280;42982;54.558;18.508;2023-06-01T00:43:24;100706.34;;;14.85;67.80
57102;BME280;42982;54.558;18.508;2023-06-01T00:44:27;100708.53;;;14.83;68.18
57102;BME280;42982;54.558;18.508;2023-06-01T00:45:31;100711.75;;;14.85;68.19
57102;BME280;42982;54.558;18.508;2023-06-01T00:46:32;100707.94;;;14.86;68.23
57102;BME280;42982;54.558;18.508;2023-06-01T00:47:39;100711.16;;;14.88;68.19
57102;BME280;42982;54.558;18.508;2023-06-01T00:48:45;100708.91;;;14.90;68.16
57102;BME280;42982;54.558;18.508;2023-06-01T00:49:48;100716.06;;;14.86;68.02
57102;BME280;42982;54.558;18.508;2023-06-01T00:50:50;100709.31;;;14.83;68.02
57102;BME280;42982;54.558;18.508;2023-06-01T00:51:52;100703.22;;;14.78;68.20
57102;BME280;42982;54.558;18.508;2023-06-01T00:52:58;100712.34;;;14.82;68.08
57102;BME280;42982;54.558;18.508;2023-06-01T00:54:00;100707.94;;;14.86;68.29
57102;BME280;42982;54.558;18.508;2023-06-01T00:55:03;100708.72;;;14.87;68.39
57102;BME280;42982;54.558;18.508;2023-06-01T00:56:05;100707.13;;;14.86;68.27
57102;BME280;42982;54.558;18.508;2023-06-01T00:57:07;100706.34;;;14.85;68.34
57102;BME280;42982;54.558;18.508;2023-06-01T00:58:09;100713.34;;;14.86;68.36
57102;BME280;42982;54.558;18.508;2023-06-01T00:59:12;100702.00;;;14.84;68.36
57102;BME280;42982;54.558;18.508;2023-06-01T01:00:13;100703.13;;;14.83;68.28
57102;BME280;42982;54.558;18.508;2023-06-01T01:01:15;100698.81;;;14.82;68.63
57102;BME280;42982;54.558;18.508;2023-06-01T01:02:20;100703.13;;;14.83;68.46
57102;BME280;42982;54.558;18.508;2023-06-01T01:03:22;100699.28;;;14.84;68.46
57102;BME280;42982;54.558;18.508;2023-06-01T01:04:27;100698.81;;;14.82;68.74
57102;BME280;42982;54.558;18.508;2023-06-01T01:05:29;100695.28;;;14.81;68.70
57102;BME280;42982;54.558;18.508;2023-06-01T01:06:53;100694.31;;;14.77;68.72
57102;BME280;42982;54.558;18.508;2023-06-01T01:08:21;100696.31;;;14.72;68.78
57102;BME280;42982;54.558;18.508;2023-06-01T01:09:29;100692.94;;;14.66;69.05
57102;BME280;42982;54.558;18.508;2023-06-01T01:10:39;100697.03;;;14.64;69.15
57102;BME280;42982;54.558;18.508;2023-06-01T01:11:51;100695.31;;;14.68;69.23
57102;BME280;42982;54.558;18.508;2023-06-01T01:13:03;100695.63;;;14.66;69.33
57102;BME280;42982;54.558;18.508;2023-06-01T01:14:22;100697.72;;;14.55;69.43
57102;BME280;42982;54.558;18.508;2023-06-01T01:15:50;100691.53;;;14.55;69.72
57102;BME280;42982;54.558;18.508;2023-06-01T01:17:13;100693.50;;;14.49;69.96
57102;BME280;42982;54.558;18.508;2023-06-01T01:18:30;100688.69;;;14.46;69.97
57102;BME280;42982;54.558;18.508;2023-06-01T01:20:58;100684.66;;;14.44;70.45
57102;BME280;42982;54.558;18.508;2023-06-01T01:25:20;100675.47;;;14.45;70.74
57102;BME280;42982;54.558;18.508;2023-06-01T01:29:06;100675.88;;;14.52;70.59
57102;BME280;42982;54.558;18.508;2023-06-01T01:30:11;100677.19;;;14.54;70.63
57102;BME280;42982;54.558;18.508;2023-06-01T01:31:20;100679.91;;;14.54;70.51
57102;BME280;42982;54.558;18.508;2023-06-01T01:32:26;100692.13;;;14.52;70.45
57102;BME280;42982;54.558;18.508;2023-06-01T01:33:28;100672.97;;;14.48;70.29
57102;BME280;42982;54.558;18.508;2023-06-01T01:34:31;100686.50;;;14.48;70.49
57102;BME280;42982;54.558;18.508;2023-06-01T01:35:33;100685.91;;;14.51;70.35
57102;BME280;42982;54.558;18.508;2023-06-01T01:36:35;100686.44;;;14.53;70.60
57102;BME280;42982;54.558;18.508;2023-06-01T01:37:52;100695.13;;;14.50;70.75
57102;BME280;42982;54.558;18.508;2023-06-01T01:38:54;100687.38;;;14.44;70.75
57102;BME280;42982;54.558;18.508;2023-06-01T01:39:56;100687.69;;;14.42;70.88
57102;BME280;42982;54.558;18.508;2023-06-01T01:40:58;100687.50;;;14.38;70.78
57102;BME280;42982;54.558;18.508;2023-06-01T01:42:00;100691.31;;;14.37;71.03
57102;BME280;42982;54.558;18.508;2023-06-01T01:43:03;100686.19;;;14.36;71.13
57102;BME280;42982;54.558;18.508;2023-06-01T01:44:06;100697.91;;;14.31;71.17
57102;BME280;42982;54.558;18.508;2023-06-01T01:45:09;100683.88;;;14.29;71.19
57102;BME280;42982;54.558;18.508;2023-06-01T01:46:27;100693.00;;;14.33;71.21
57102;BME280;42982;54.558;18.508;2023-06-01T01:47:40;100690.47;;;14.37;71.37
57102;BME280;42982;54.558;18.508;2023-06-01T01:49:15;100685.91;;;14.37;71.20
57102;BME280;42982;54.558;18.508;2023-06-01T01:50:26;100687.50;;;14.38;71.19
57102;BME280;42982;54.558;18.508;2023-06-01T01:52:42;100687.09;;;14.31;71.04
57102;BME280;42982;54.558;18.508;2023-06-01T01:53:44;100687.19;;;14.26;71.23
57102;BME280;42982;54.558;18.508;2023-06-01T01:54:47;100694.50;;;14.26;71.36
57102;BME280;42982;54.558;18.508;2023-06-01T01:55:51;100684.47;;;14.26;71.56
57102;BME280;42982;54.558;18.508;2023-06-01T01:56:57;100693.38;;;14.27;71.52
57102;BME280;42982;54.558;18.508;2023-06-01T01:57:59;100684.75;;;14.25;71.60
57102;BME280;42982;54.558;18.508;2023-06-01T01:59:04;100678.47;;;14.16;71.61
57102;BME280;42982;54.558;18.508;2023-06-01T02:00:07;100681.25;;;14.10;71.99
57102;BME280;42982;54.558;18.508;2023-06-01T02:01:16;100682.66;;;14.08;71.99
57102;BME280;42982;54.558;18.508;2023-06-01T02:02:18;100691.28;;;14.10;72.17
57102;BME280;42982;54.558;18.508;2023-06-01T02:03:20;100672.03;;;14.11;72.43
57102;BME280;42982;54.558;18.508;2023-06-01T02:04:21;100678.47;;;14.16;72.28
57102;BME280;42982;54.558;18.508;2023-06-01T02:05:23;100680.66;;;14.13;72.27
57102;BME280;42982;54.558;18.508;2023-06-01T02:06:25;100680.16;;;14.11;72.20
57102;BME280;42982;54.558;18.508;2023-06-01T02:07:27;100685.06;;;14.09;72.32
57102;BME280;42982;54.558;18.508;2023-06-01T02:08:29;100692.97;;;14.06;72.30
57102;BME280;42982;54.558;18.508;2023-06-01T02:09:31;100673.84;;;14.02;72.48
57102;BME280;42982;54.558;18.508;2023-06-01T02:10:33;100683.25;;;14.05;72.48
57102;BME280;42982;54.558;18.508;2023-06-01T02:11:34;100698.09;;;14.07;72.63
57102;BME280;42982;54.558;18.508;2023-06-01T02:12:36;100679.06;;;14.12;72.65
57102;BME280;42982;54.558;18.508;2023-06-01T02:13:38;100677.44;;;14.11;72.40
57102;BME280;42982;54.558;18.508;2023-06-01T02:14:41;100675.25;;;14.13;72.41
57102;BME280;42982;54.558;18.508;2023-06-01T02:15:43;100683.06;;;14.15;72.58
57102;BME280;42982;54.558;18.508;2023-06-01T02:16:44;100679.56;;;14.14;72.36
57102;BME280;42982;54.558;18.508;2023-06-01T02:17:48;100679.56;;;14.14;72.52
57102;BME280;42982;54.558;18.508;2023-06-01T02:18:54;100676.66;;;14.11;72.57
57102;BME280;42982;54.558;18.508;2023-06-01T02:19:59;100672.03;;;14.11;72.55
57102;BME280;42982;54.558;18.508;2023-06-01T02:21:01;100673.66;;;14.12;72.29
57102;BME280;42982;54.558;18.508;2023-06-01T02:22:03;100685.88;;;14.10;72.52
57102;BME280;42982;54.558;18.508;2023-06-01T02:23:06;100674.34;;;14.04;72.40
57102;BME280;42982;54.558;18.508;2023-06-01T02:24:08;100669.84;;;14.00;72.61
57102;BME280;42982;54.558;18.508;2023-06-01T02:25:09;100670.03;;;14.03;72.65
57102;BME280;42982;54.558;18.508;2023-06-01T02:26:11;100674.63;;;14.03;73.05
57102;BME280;42982;54.558;18.508;2023-06-01T02:27:13;100671.94;;;14.03;72.77
57102;BME280;42982;54.558;18.508;2023-06-01T02:28:14;100666.81;;;14.01;73.00
57102;BME280;42982;54.558;18.508;2023-06-01T02:29:17;100667.44;;;13.98;72.85
57102;BME280;42982;54.558;18.508;2023-06-01T02:30:21;100662.22;;;14.02;73.00
57102;BME280;42982;54.558;18.508;2023-06-01T02:31:22;100660.03;;;14.04;73.13
57102;BME280;42982;54.558;18.508;2023-06-01T02:32:24;100668.22;;;13.99;72.76
57102;BME280;42982;54.558;18.508;2023-06-01T02:33:28;100665.63;;;13.94;72.80
57102;BME280;42982;54.558;18.508;2023-06-01T02:34:32;100663.22;;;13.92;73.13
57102;BME280;42982;54.558;18.508;2023-06-01T02:35:34;100655.63;;;13.94;73.06
57102;BME280;42982;54.558;18.508;2023-06-01T02:36:36;100642.09;;;13.94;73.02
57102;BME280;42982;54.558;18.508;2023-06-01T02:37:38;100648.97;;;13.86;73.18
57102;BME280;42982;54.558;18.508;2023-06-01T02:38:40;100647.19;;;13.82;73.55
57102;BME280;42982;54.558;18.508;2023-06-01T02:39:42;100649.56;;;13.83;73.66
57102;BME280;42982;54.558;18.508;2023-06-01T02:40:46;100651.19;;;13.84;73.67
57102;BME280;42982;54.558;18.508;2023-06-01T02:41:48;100643.56;;;13.86;73.32
57102;BME280;42982;54.558;18.508;2023-06-01T02:42:49;100640.78;;;13.91;73.51
57102;BME280;42982;54.558;18.508;2023-06-01T02:43:52;100650.22;;;13.94;73.54
57102;BME280;42982;54.558;18.508;2023-06-01T02:44:54;100648.50;;;13.98;73.35
57102;BME280;42982;54.558;18.508;2023-06-01T02:45:56;100645.00;;;13.98;73.13
57102;BME280;42982;54.558;18.508;2023-06-01T02:46:57;100641.59;;;13.92;73.31
57102;BME280;42982;54.558;18.508;2023-06-01T02:48:02;100644.38;;;13.87;73.30
57102;BME280;42982;54.558;18.508;2023-06-01T02:49:04;100636.56;;;13.85;73.29
57102;BME280;42982;54.558;18.508;2023-06-01T02:50:07;100641.38;;;13.88;73.42
57102;BME280;42982;54.558;18.508;2023-06-01T02:51:13;100641.59;;;13.92;73.38
57102;BME280;42982;54.558;18.508;2023-06-01T02:52:18;100639.41;;;13.94;73.59
57102;BME280;42982;54.558;18.508;2023-06-01T02:53:20;100638.00;;;13.97;73.26
57102;BME280;42982;54.558;18.508;2023-06-01T02:54:22;100636.59;;;13.99;73.37
57102;BME280;42982;54.558;18.508;2023-06-01T02:55:23;100644.41;;;14.01;73.15
57102;BME280;42982;54.558;18.508;2023-06-01T02:56:43;100634.78;;;13.95;73.29
57102;BME280;42982;54.558;18.508;2023-06-01T02:58:14;100630.69;;;13.97;73.24
57102;BME280;42982;54.558;18.508;2023-06-01T02:59:30;100641.00;;;13.95;73.27
57102;BME280;42982;54.558;18.508;2023-06-01T03:00:36;100625.56;;;13.96;73.22
57102;BME280;42982;54.558;18.508;2023-06-01T03:01:39;100629.19;;;13.91;73.37
57102;BME280;42982;54.558;18.508;2023-06-01T03:02:44;100635.06;;;13.93;73.23
57102;BME280;42982;54.558;18.508;2023-06-01T03:03:47;100624.25;;;13.93;73.27
57102;BME280;42982;54.558;18.508;2023-06-01T03:04:49;100629.38;;;13.95;73.47
57102;BME280;42982;54.558;18.508;2023-06-01T03:05:53;100627.38;;;14.00;73.56
57102;BME280;42982;54.558;18.508;2023-06-01T03:07:13;100623.91;;;14.00;73.42
57102;BME280;42982;54.558;18.508;2023-06-01T03:08:23;100627.38;;;14.00;73.36
57102;BME280;42982;54.558;18.508;2023-06-01T03:09:26;100629.59;;;13.98;73.58
57102;BME280;42982;54.558;18.508;2023-06-01T03:10:37;100637.09;;;14.01;73.23
57102;BME280;42982;54.558;18.508;2023-06-01T03:11:53;100631.09;;;14.04;73.30
57102;BME280;42982;54.558;18.508;2023-06-01T03:12:55;100632.09;;;14.08;73.30
57102;BME280;42982;54.558;18.508;2023-06-01T03:13:59;100629.56;;;14.12;72.92
57102;BME280;42982;54.558;18.508;2023-06-01T03:15:03;100637.19;;;14.10;72.84
57102;BME280;42982;54.558;18.508;2023-06-01T03:16:05;100630.41;;;14.12;72.93
57102;BME280;42982;54.558;18.508;2023-06-01T03:17:10;100630.59;;;14.16;73.00
57102;BME280;42982;54.558;18.508;2023-06-01T03:18:15;100628.56;;;14.22;72.79
57102;BME280;42982;54.558;18.508;2023-06-01T03:19:16;100627.97;;;14.25;72.89
57102;BME280;42982;54.558;18.508;2023-06-01T03:20:20;100619.78;;;14.30;72.70
57102;BME280;42982;54.558;18.508;2023-06-01T03:21:26;100629.38;;;14.36;72.48
57102;BME280;42982;54.558;18.508;2023-06-01T03:22:28;100629.38;;;14.36;72.25
57102;BME280;42982;54.558;18.508;2023-06-01T03:23:30;100627.19;;;14.38;72.30
57102;BME280;42982;54.558;18.508;2023-06-01T03:24:32;100615.75;;;14.41;72.22
57102;BME280;42982;54.558;18.508;2023-06-01T03:25:38;100631.59;;;14.48;71.91
57102;BME280;42982;54.558;18.508;2023-06-01T03:26:40;100619.56;;;14.54;72.00
57102;BME280;42982;54.558;18.508;2023-06-01T03:27:42;100621.97;;;14.55;71.74
57102;BME280;42982;54.558;18.508;2023-06-01T03:28:44;100603.53;;;14.57;71.65
57102;BME280;42982;54.558;18.508;2023-06-01T03:29:48;100611.84;;;14.61;71.64
57102;BME280;42982;54.558;18.508;2023-06-01T03:30:50;100610.72;;;14.62;71.53
57102;BME280;42982;54.558;18.508;2023-06-01T03:31:54;100604.91;;;14.69;71.19
57102;BME280;42982;54.558;18.508;2023-06-01T03:32:58;100608.72;;;14.68;71.24
57102;BME280;42982;54.558;18.508;2023-06-01T03:34:01;100612.53;;;14.67;71.35
57102;BME280;42982;54.558;18.508;2023-06-01T03:35:04;100605.50;;;14.66;71.28
57102;BME280;42982;54.558;18.508;2023-06-01T03:36:09;100608.09;;;14.71;71.34
57102;BME280;42982;54.558;18.508;2023-06-01T03:37:11;100603.50;;;14.71;71.51
57102;BME280;42982;54.558;18.508;2023-06-01T03:38:13;100605.31;;;14.76;71.21
57102;BME280;42982;54.558;18.508;2023-06-01T03:39:14;100605.91;;;14.73;71.45
57102;BME280;42982;54.558;18.508;2023-06-01T03:40:17;100600.50;;;14.73;71.36
57102;BME280;42982;54.558;18.508;2023-06-01T03:41:19;100603.88;;;14.78;71.23
57102;BME280;42982;54.558;18.508;2023-06-01T03:42:24;100605.66;;;14.83;71.11
57102;BME280;42982;54.558;18.508;2023-06-01T03:43:26;100604.81;;;14.96;70.97
57102;BME280;42982;54.558;18.508;2023-06-01T03:44:28;100601.38;;;15.04;70.60
57102;BME280;42982;54.558;18.508;2023-06-01T03:45:32;100612.59;;;15.12;70.55
57102;BME280;42982;54.558;18.508;2023-06-01T03:46:35;100614.25;;;15.21;70.58
57102;BME280;42982;54.558;18.508;2023-06-01T03:47:38;100609.88;;;15.34;70.16
57102;BME280;42982;54.558;18.508;2023-06-01T03:48:39;100614.06;;;15.40;69.70
57102;BME280;42982;54.558;18.508;2023-06-01T03:49:43;100617.72;;;15.44;69.71
57102;BME280;42982;54.558;18.508;2023-06-01T03:50:46;100609.00;;;15.47;69.33
57102;BME280;42982;54.558;18.508;2023-06-01T03:51:47;100609.19;;;15.51;69.37
57102;BME280;42982;54.558;18.508;2023-06-01T03:52:50;100609.09;;;15.65;69.26
57102;BME280;42982;54.558;18.508;2023-06-01T03:53:52;100607.88;;;15.71;68.51
57102;BME280;42982;54.558;18.508;2023-06-01T03:54:55;100608.50;;;15.68;68.10
57102;BME280;42982;54.558;18.508;2023-06-01T03:56:23;100607.16;;;15.88;68.26
57102;BME280;42982;54.558;18.508;2023-06-01T03:57:27;100604.81;;;16.04;67.73
57102;BME280;42982;54.558;18.508;2023-06-01T03:58:29;100605.03;;;16.16;67.30
57102;BME280;42982;54.558;18.508;2023-06-01T03:59:31;100616.03;;;16.19;66.82
57102;BME280;42982;54.558;18.508;2023-06-01T04:00:33;100612.88;;;16.26;66.59
57102;BME280;42982;54.558;18.508;2023-06-01T04:01:39;100595.69;;;16.39;66.62
57102;BME280;42982;54.558;18.508;2023-06-01T04:02:55;100601.75;;;16.54;66.07
57102;BME280;42982;54.558;18.508;2023-06-01T04:03:56;100597.94;;;16.72;65.80
57102;BME280;42982;54.558;18.508;2023-06-01T04:05:01;100592.53;;;16.89;65.25
57102;BME280;42982;54.558;18.508;2023-06-01T04:06:03;100592.88;;;16.97;64.41
57102;BME280;42982;54.558;18.508;2023-06-01T04:07:13;100593.19;;;17.04;63.92
57102;BME280;42982;54.558;18.508;2023-06-01T04:08:22;100594.13;;;17.08;63.63
57102;BME280;42982;54.558;18.508;2023-06-01T04:09:24;100592.84;;;17.14;63.38
57102;BME280;42982;54.558;18.508;2023-06-01T04:10:26;100592.50;;;17.24;63.42
57102;BME280;42982;54.558;18.508;2023-06-01T04:11:27;100596.66;;;17.30;63.31
57102;BME280;42982;54.558;18.508;2023-06-01T04:12:32;100596.97;;;17.37;62.97
57102;BME280;42982;54.558;18.508;2023-06-01T04:13:34;100588.97;;;17.41;62.58
57102;BME280;42982;54.558;18.508;2023-06-01T04:14:38;100589.13;;;17.45;62.41
57102;BME280;42982;54.558;18.508;2023-06-01T04:15:39;100588.75;;;17.55;62.31
57102;BME280;42982;54.558;18.508;2023-06-01T04:16:46;100588.88;;;17.67;62.02
57102;BME280;42982;54.558;18.508;2023-06-01T04:17:55;100591.09;;;17.82;61.89
57102;BME280;42982;54.558;18.508;2023-06-01T04:19:02;100584.91;;;18.03;61.36
57102;BME280;42982;54.558;18.508;2023-06-01T04:20:11;100585.00;;;18.15;60.69
57102;BME280;42982;54.558;18.508;2023-06-01T04:21:13;100588.97;;;18.26;60.38
57102;BME280;42982;54.558;18.508;2023-06-01T04:22:15;100578.22;;;18.30;59.74
57102;BME280;42982;54.558;18.508;2023-06-01T04:23:21;100579.75;;;18.40;59.67
57102;BME280;42982;54.558;18.508;2023-06-01T04:24:22;100580.63;;;18.52;59.34
57102;BME280;42982;54.558;18.508;2023-06-01T04:25:24;100578.50;;;18.58;58.78
57102;BME280;42982;54.558;18.508;2023-06-01T04:26:30;100579.78;;;18.61;58.50
57102;BME280;42982;54.558;18.508;2023-06-01T04:27:44;100581.84;;;18.64;58.25
57102;BME280;42982;54.558;18.508;2023-06-01T04:28:49;100577.44;;;18.71;58.14
57102;BME280;42982;54.558;18.508;2023-06-01T04:29:51;100580.09;;;18.59;58.24
57102;BME280;42982;54.558;18.508;2023-06-01T04:30:54;100582.41;;;18.69;58.06
57102;BME280;42982;54.558;18.508;2023-06-01T04:31:57;100581.38;;;18.83;57.67
57102;BME280;42982;54.558;18.508;2023-06-01T04:32:59;100584.50;;;18.93;57.78
57102;BME280;42982;54.558;18.508;2023-06-01T04:34:02;100577.16;;;19.06;57.18
57102;BME280;42982;54.558;18.508;2023-06-01T04:35:07;100575.41;;;19.22;56.97
57102;BME280;42982;54.558;18.508;2023-06-01T04:36:08;100580.44;;;19.33;56.36
57102;BME280;42982;54.558;18.508;2023-06-01T04:37:13;100584.56;;;19.39;56.46
57102;BME280;42982;54.558;18.508;2023-06-01T04:38:16;100577.16;;;19.39;56.25
57102;BME280;42982;54.558;18.508;2023-06-01T04:39:19;100577.72;;;19.45;56.13
57102;BME280;42982;54.558;18.508;2023-06-01T04:40:21;100569.81;;;19.52;55.31
57102;BME280;42982;54.558;18.508;2023-06-01T04:41:22;100570.13;;;19.51;55.17
57102;BME280;42982;54.558;18.508;2023-06-01T04:42:24;100571.19;;;19.58;55.94
57102;BME280;42982;54.558;18.508;2023-06-01T04:43:26;100574.06;;;19.74;55.72
57102;BME280;42982;54.558;18.508;2023-06-01T04:44:28;100573.03;;;19.91;55.12
57102;BME280;42982;54.558;18.508;2023-06-01T04:45:30;100569.53;;;20.03;54.76
57102;BME280;42982;54.558;18.508;2023-06-01T04:46:34;100568.16;;;20.09;54.25
57102;BME280;42982;54.558;18.508;2023-06-01T04:47:40;100587.59;;;20.07;53.82
57102;BME280;42982;54.558;18.508;2023-06-01T04:48:48;100579.19;;;20.12;53.81
57102;BME280;42982;54.558;18.508;2023-06-01T04:49:52;100577.22;;;20.25;53.72
57102;BME280;42982;54.558;18.508;2023-06-01T04:50:55;100575.97;;;20.35;53.46
57102;BME280;42982;54.558;18.508;2023-06-01T04:51:59;100569.34;;;20.48;53.31
57102;BME280;42982;54.558;18.508;2023-06-01T04:53:01;100563.22;;;20.51;52.71
57102;BME280;42982;54.558;18.508;2023-06-01T04:54:07;100565.91;;;20.64;52.51
57102;BME280;42982;54.558;18.508;2023-06-01T04:55:10;100569.31;;;20.73;52.07
57102;BME280;42982;54.558;18.508;2023-06-01T04:56:12;100561.56;;;20.75;51.78
57102;BME280;42982;54.558;18.508;2023-06-01T04:57:13;100565.41;;;20.74;51.74
57102;BME280;42982;54.558;18.508;2023-06-01T04:58:15;100568.72;;;20.79;51.60
57102;BME280;42982;54.558;18.508;2023-06-01T04:59:19;100573.38;;;20.79;51.56
57102;BME280;42982;54.558;18.508;2023-06-01T05:00:22;100562.09;;;20.80;51.70
57102;BME280;42982;54.558;18.508;2023-06-01T05:01:25;100578.44;;;20.93;51.70
57102;BME280;42982;54.558;18.508;2023-06-01T05:02:33;100565.50;;;21.05;51.67
57102;BME280;42982;54.558;18.508;2023-06-01T05:03:36;100583.06;;;21.04;51.49
57102;BME280;42982;54.558;18.508;2023-06-01T05:04:38;100560.97;;;21.10;51.27
57102;BME280;42982;54.558;18.508;2023-06-01T05:05:40;100565.72;;;21.13;51.19
57102;BME280;42982;54.558;18.508;2023-06-01T05:06:42;100574.19;;;21.23;50.82
57102;BME280;42982;54.558;18.508;2023-06-01T05:07:46;100561.38;;;21.40;50.72
57102;BME280;42982;54.558;18.508;2023-06-01T05:08:51;100571.28;;;21.60;50.11
57102;BME280;42982;54.558;18.508;2023-06-01T05:09:56;100560.25;;;21.72;49.44
57102;BME280;42982;54.558;18.508;2023-06-01T05:11:01;100561.03;;;21.73;49.33
57102;BME280;42982;54.558;18.508;2023-06-01T05:12:04;100555.91;;;21.71;49.70
57102;BME280;42982;54.558;18.508;2023-06-01T05:13:09;100560.41;;;21.80;49.49
57102;BME280;42982;54.558;18.508;2023-06-01T05:14:13;100561.97;;;21.96;49.04
57102;BME280;42982;54.558;18.508;2023-06-01T05:15:19;100561.19;;;21.96;48.24
57102;BME280;42982;54.558;18.508;2023-06-01T05:16:24;100555.44;;;22.01;48.49
57102;BME280;42982;54.558;18.508;2023-06-01T05:17:29;100558.78;;;22.10;48.11
57102;BME280;42982;54.558;18.508;2023-06-01T05:18:31;100559.59;;;22.11;48.19
57102;BME280;42982;54.558;18.508;2023-06-01T05:19:33;100563.56;;;22.13;48.47
57102;BME280;42982;54.558;18.508;2023-06-01T05:20:34;100555.16;;;22.22;48.44
57102;BME280;42982;54.558;18.508;2023-06-01T05:21:39;100559.38;;;22.35;48.38
57102;BME280;42982;54.558;18.508;2023-06-01T05:22:41;100561.03;;;22.40;47.80
57102;BME280;42982;54.558;18.508;2023-06-01T05:23:43;100560.38;;;22.47;47.46
57102;BME280;42982;54.558;18.508;2023-06-01T05:24:47;100562.97;;;22.39;47.69
57102;BME280;42982;54.558;18.508;2023-06-01T05:25:49;100556.50;;;22.48;47.46
57102;BME280;42982;54.558;18.508;2023-06-01T05:26:51;100561.06;;;22.59;47.01
57102;BME280;42982;54.558;18.508;2023-06-01T05:27:53;100560.25;;;22.59;46.96
57102;BME280;42982;54.558;18.508;2023-06-01T05:28:58;100568.56;;;22.62;46.88
57102;BME280;42982;54.558;18.508;2023-06-01T05:30:00;100560.84;;;22.68;46.64
57102;BME280;42982;54.558;18.508;2023-06-01T05:31:02;100560.97;;;22.75;46.92
57102;BME280;42982;54.558;18.508;2023-06-01T05:32:06;100562.66;;;22.80;46.69
57102;BME280;42982;54.558;18.508;2023-06-01T05:33:07;100566.19;;;23.00;46.63
57102;BME280;42982;54.558;18.508;2023-06-01T05:34:10;100570.28;;;23.09;46.00
57102;BME280;42982;54.558;18.508;2023-06-01T05:35:11;100564.88;;;23.13;45.83
57102;BME280;42982;54.558;18.508;2023-06-01T05:36:14;100565.81;;;23.21;45.91
57102;BME280;42982;54.558;18.508;2023-06-01T05:37:16;100564.72;;;23.25;46.22
57102;BME280;42982;54.558;18.508;2023-06-01T05:38:19;100554.63;;;23.10;45.85
57102;BME280;42982;54.558;18.508;2023-06-01T05:39:22;100558.66;;;23.16;46.06
57102;BME280;42982;54.558;18.508;2023-06-01T05:40:28;100554.19;;;23.27;45.76